AIC99NN GVNP-GOBD
Flight info
| Callsign | AIC99NN |
|---|---|
| Flight time | 1h 14m |
| Altitude | 33000 |
| Route | MILPU1N SONVA DCT MOGSA DCT PIVSA PIVSA1D |
| Aircraft | A320/M-SDE3FGHIRWY/LB1 |
Departure
| Time | 2026-04-25 18:17 |
|---|---|
| Airport | Nelson Mandela International Airport (GVNP) |
Arrival
| Time | 2026-04-25 19:31 |
|---|---|
| Airport | Blaise Diagne International Airport (GOBD) |
| Time | Latitude | Longitude | Altitude | Speed | Heading |
|---|---|---|---|---|---|
| 2026-04-25 17:57 | 14.94572 | -23.48541 | 332 ft | 0 kts | 290° |
| 2026-04-25 18:07 | 14.94572 | -23.48540 | 332 ft | 0 kts | 290° |
| 2026-04-25 18:07 | 14.94570 | -23.48537 | 331 ft | 2 kts | 290° |
| 2026-04-25 18:07 | 14.94565 | -23.48522 | 331 ft | 2 kts | 289° |
| 2026-04-25 18:08 | 14.94560 | -23.48507 | 330 ft | 2 kts | 290° |
| 2026-04-25 18:08 | 14.94555 | -23.48493 | 329 ft | 1 kts | 290° |
| 2026-04-25 18:08 | 14.94552 | -23.48483 | 328 ft | 2 kts | 273° |
| 2026-04-25 18:08 | 14.94556 | -23.48468 | 327 ft | 2 kts | 236° |
| 2026-04-25 18:09 | 14.94564 | -23.48459 | 326 ft | 0 kts | 207° |
| 2026-04-25 18:09 | 14.94571 | -23.48457 | 326 ft | 1 kts | 202° |
| 2026-04-25 18:09 | 14.94571 | -23.48456 | 326 ft | 0 kts | 203° |
| 2026-04-25 18:11 | 14.94567 | -23.48458 | 326 ft | 1 kts | 203° |
| 2026-04-25 18:11 | 14.94547 | -23.48467 | 326 ft | 4 kts | 203° |
| 2026-04-25 18:12 | 14.94508 | -23.48484 | 325 ft | 7 kts | 203° |
| 2026-04-25 18:12 | 14.94442 | -23.48513 | 322 ft | 12 kts | 203° |
| 2026-04-25 18:12 | 14.94366 | -23.48518 | 318 ft | 11 kts | 134° |
| 2026-04-25 18:12 | 14.94344 | -23.48462 | 314 ft | 6 kts | 109° |
| 2026-04-25 18:13 | 14.94340 | -23.48452 | 313 ft | 0 kts | 109° |
| 2026-04-25 18:13 | 14.94326 | -23.48421 | 311 ft | 7 kts | 127° |
| 2026-04-25 18:14 | 14.94190 | -23.48437 | 309 ft | 14 kts | 200° |
| 2026-04-25 18:14 | 14.94090 | -23.48475 | 310 ft | 16 kts | 200° |
| 2026-04-25 18:14 | 14.93979 | -23.48523 | 310 ft | 18 kts | 203° |
| 2026-04-25 18:14 | 14.93853 | -23.48578 | 308 ft | 21 kts | 202° |
| 2026-04-25 18:15 | 14.93700 | -23.48642 | 305 ft | 29 kts | 201° |
| 2026-04-25 18:15 | 14.93452 | -23.48740 | 296 ft | 46 kts | 205° |
| 2026-04-25 18:15 | 14.93289 | -23.48828 | 283 ft | 16 kts | 233° |
| 2026-04-25 18:15 | 14.93249 | -23.48831 | 281 ft | 7 kts | 32° |
| 2026-04-25 18:16 | 14.93296 | -23.48809 | 285 ft | 15 kts | 24° |
| 2026-04-25 18:16 | 14.93619 | -23.48673 | 303 ft | 83 kts | 22° |
| 2026-04-25 18:16 | 14.95348 | -23.47952 | 706 ft | 156 kts | 23° |
| 2026-04-25 18:17 | 14.96353 | -23.47531 | 1333 ft | 159 kts | 24° |
| 2026-04-25 18:17 | 14.97366 | -23.47100 | 2018 ft | 160 kts | 24° |
| 2026-04-25 18:17 | 14.98451 | -23.46639 | 2536 ft | 174 kts | 24° |
| 2026-04-25 18:17 | 14.99608 | -23.46151 | 2949 ft | 189 kts | 24° |
| 2026-04-25 18:18 | 15.00890 | -23.45613 | 3337 ft | 207 kts | 23° |
| 2026-04-25 18:18 | 15.02284 | -23.45029 | 3724 ft | 226 kts | 23° |
| 2026-04-25 18:18 | 15.03706 | -23.44210 | 4155 ft | 245 kts | 42° |
| 2026-04-25 18:18 | 15.04724 | -23.42719 | 4674 ft | 261 kts | 69° |
| 2026-04-25 18:19 | 15.04968 | -23.40848 | 5469 ft | 269 kts | 95° |
| 2026-04-25 18:19 | 15.04526 | -23.38957 | 6352 ft | 272 kts | 104° |
| 2026-04-25 18:19 | 15.03976 | -23.37083 | 7183 ft | 276 kts | 105° |
| 2026-04-25 18:19 | 15.03411 | -23.35182 | 8012 ft | 279 kts | 105° |
| 2026-04-25 18:20 | 15.02849 | -23.33274 | 8839 ft | 283 kts | 105° |
| 2026-04-25 18:20 | 15.02279 | -23.31322 | 9664 ft | 286 kts | 105° |
| 2026-04-25 18:20 | 15.01706 | -23.29353 | 10453 ft | 290 kts | 105° |
| 2026-04-25 18:20 | 15.01104 | -23.27278 | 10940 ft | 306 kts | 105° |
| 2026-04-25 18:21 | 15.00481 | -23.25129 | 11394 ft | 321 kts | 105° |
| 2026-04-25 18:21 | 14.99833 | -23.22904 | 12136 ft | 326 kts | 105° |
| 2026-04-25 18:21 | 14.99174 | -23.20649 | 12939 ft | 328 kts | 105° |
| 2026-04-25 18:21 | 14.98509 | -23.18377 | 13706 ft | 331 kts | 105° |
| 2026-04-25 18:22 | 14.97840 | -23.16085 | 14449 ft | 335 kts | 105° |
| 2026-04-25 18:22 | 14.97620 | -23.15330 | 14687 ft | 336 kts | 105° |
| 2026-04-25 18:22 | 14.96791 | -23.11380 | 15865 ft | 339 kts | 93° |
| 2026-04-25 18:22 | 14.96594 | -23.08932 | 16551 ft | 342 kts | 91° |
| 2026-04-25 18:23 | 14.96417 | -23.06465 | 17200 ft | 346 kts | 91° |
| 2026-04-25 18:23 | 14.96228 | -23.03971 | 17835 ft | 350 kts | 91° |
| 2026-04-25 18:23 | 14.96024 | -23.01458 | 18443 ft | 354 kts | 91° |
| 2026-04-25 18:23 | 14.95809 | -22.98917 | 18807 ft | 357 kts | 92° |
| 2026-04-25 18:24 | 14.95583 | -22.96313 | 18896 ft | 357 kts | 92° |
| 2026-04-25 18:24 | 14.95355 | -22.93750 | 18904 ft | 356 kts | 92° |
| 2026-04-25 18:24 | 14.95125 | -22.91193 | 18909 ft | 356 kts | 92° |
| 2026-04-25 18:24 | 14.94894 | -22.88642 | 18911 ft | 355 kts | 92° |
| 2026-04-25 18:25 | 14.94663 | -22.86106 | 18912 ft | 355 kts | 92° |
| 2026-04-25 18:25 | 14.94432 | -22.83589 | 18906 ft | 346 kts | 92° |
| 2026-04-25 18:25 | 14.94207 | -22.81164 | 18904 ft | 329 kts | 92° |
| 2026-04-25 18:25 | 14.93994 | -22.78880 | 18903 ft | 314 kts | 92° |
| 2026-04-25 18:26 | 14.93789 | -22.76673 | 18901 ft | 298 kts | 92° |
| 2026-04-25 18:26 | 14.93594 | -22.74558 | 18908 ft | 295 kts | 91° |
| 2026-04-25 18:26 | 14.93402 | -22.72456 | 18908 ft | 293 kts | 91° |
| 2026-04-25 18:26 | 14.93212 | -22.70408 | 18899 ft | 279 kts | 91° |
| 2026-04-25 18:27 | 14.93029 | -22.68451 | 18892 ft | 263 kts | 91° |
| 2026-04-25 18:27 | 14.92856 | -22.66611 | 18887 ft | 247 kts | 91° |
| 2026-04-25 18:27 | 14.92693 | -22.64846 | 18901 ft | 243 kts | 91° |
| 2026-04-25 18:27 | 14.92534 | -22.63104 | 18907 ft | 243 kts | 91° |
| 2026-04-25 18:28 | 14.92375 | -22.61358 | 18910 ft | 243 kts | 91° |
| 2026-04-25 18:28 | 14.92216 | -22.59624 | 18911 ft | 243 kts | 91° |
| 2026-04-25 18:28 | 14.92055 | -22.57875 | 18912 ft | 243 kts | 91° |
| 2026-04-25 18:29 | 14.91732 | -22.54389 | 18912 ft | 243 kts | 91° |
| 2026-04-25 18:29 | 14.91567 | -22.52620 | 18912 ft | 243 kts | 91° |
| 2026-04-25 18:30 | 14.91078 | -22.47375 | 18912 ft | 243 kts | 91° |
| 2026-04-25 18:30 | 14.90916 | -22.45644 | 18913 ft | 243 kts | 91° |
| 2026-04-25 18:30 | 14.90752 | -22.43892 | 18912 ft | 243 kts | 91° |
| 2026-04-25 18:30 | 14.90589 | -22.42144 | 18912 ft | 243 kts | 91° |
| 2026-04-25 18:31 | 14.90425 | -22.40399 | 18912 ft | 243 kts | 91° |
| 2026-04-25 18:31 | 14.90261 | -22.38650 | 18912 ft | 243 kts | 91° |
| 2026-04-25 18:31 | 14.90097 | -22.36897 | 18912 ft | 243 kts | 91° |
| 2026-04-25 18:31 | 14.89933 | -22.35158 | 18913 ft | 243 kts | 91° |
| 2026-04-25 18:32 | 14.89768 | -22.33396 | 18913 ft | 243 kts | 91° |
| 2026-04-25 18:32 | 14.89604 | -22.31656 | 18913 ft | 243 kts | 91° |
| 2026-04-25 18:32 | 14.89439 | -22.29901 | 18913 ft | 243 kts | 91° |
| 2026-04-25 18:32 | 14.89274 | -22.28152 | 18913 ft | 243 kts | 91° |
| 2026-04-25 18:33 | 14.89110 | -22.26408 | 18913 ft | 243 kts | 91° |
| 2026-04-25 18:33 | 14.88945 | -22.24654 | 18913 ft | 243 kts | 91° |
| 2026-04-25 18:33 | 14.88778 | -22.22896 | 18913 ft | 243 kts | 91° |
| 2026-04-25 18:33 | 14.88613 | -22.21148 | 18913 ft | 243 kts | 91° |
| 2026-04-25 18:34 | 14.88449 | -22.19408 | 18913 ft | 243 kts | 91° |
| 2026-04-25 18:34 | 14.88284 | -22.17666 | 18913 ft | 244 kts | 91° |
| 2026-04-25 18:34 | 14.88118 | -22.15920 | 18912 ft | 244 kts | 91° |
| 2026-04-25 18:34 | 14.87953 | -22.14181 | 18913 ft | 244 kts | 91° |
| 2026-04-25 18:35 | 14.87787 | -22.12426 | 18913 ft | 244 kts | 91° |
| 2026-04-25 18:35 | 14.87620 | -22.10672 | 18913 ft | 244 kts | 91° |
| 2026-04-25 18:35 | 14.87453 | -22.08914 | 18913 ft | 244 kts | 91° |
| 2026-04-25 18:35 | 14.87284 | -22.07150 | 18913 ft | 244 kts | 91° |
| 2026-04-25 18:36 | 14.87118 | -22.05402 | 18913 ft | 244 kts | 91° |
| 2026-04-25 18:36 | 14.86951 | -22.03654 | 18913 ft | 244 kts | 91° |
| 2026-04-25 18:36 | 14.86783 | -22.01904 | 18914 ft | 244 kts | 91° |
| 2026-04-25 18:36 | 14.86616 | -22.00156 | 18915 ft | 244 kts | 91° |
| 2026-04-25 18:37 | 14.86447 | -21.98387 | 18917 ft | 243 kts | 91° |
| 2026-04-25 18:37 | 14.86281 | -21.96655 | 18918 ft | 243 kts | 91° |
| 2026-04-25 18:37 | 14.86115 | -21.94924 | 18920 ft | 243 kts | 91° |
| 2026-04-25 18:37 | 14.85948 | -21.93173 | 18922 ft | 243 kts | 91° |
| 2026-04-25 18:38 | 14.85780 | -21.91420 | 18923 ft | 243 kts | 91° |
| 2026-04-25 18:38 | 14.85613 | -21.89681 | 18925 ft | 243 kts | 91° |
| 2026-04-25 18:38 | 14.85444 | -21.87920 | 18927 ft | 243 kts | 91° |
| 2026-04-25 18:38 | 14.85274 | -21.86153 | 18928 ft | 243 kts | 91° |
| 2026-04-25 18:39 | 14.85107 | -21.84421 | 18930 ft | 243 kts | 91° |
| 2026-04-25 18:39 | 14.84939 | -21.82671 | 18931 ft | 243 kts | 91° |
| 2026-04-25 18:39 | 14.84770 | -21.80917 | 18932 ft | 243 kts | 91° |
| 2026-04-25 18:39 | 14.84602 | -21.79184 | 18933 ft | 243 kts | 91° |
| 2026-04-25 18:40 | 14.84432 | -21.77422 | 18933 ft | 243 kts | 91° |
| 2026-04-25 18:40 | 14.84264 | -21.75684 | 18934 ft | 243 kts | 91° |
| 2026-04-25 18:40 | 14.84094 | -21.73920 | 18934 ft | 243 kts | 91° |
| 2026-04-25 18:40 | 14.83926 | -21.72183 | 18934 ft | 243 kts | 91° |
| 2026-04-25 18:41 | 14.83755 | -21.70416 | 18934 ft | 243 kts | 91° |
| 2026-04-25 18:41 | 14.83585 | -21.68663 | 18934 ft | 243 kts | 91° |
| 2026-04-25 18:41 | 14.83418 | -21.66939 | 18934 ft | 243 kts | 91° |
| 2026-04-25 18:41 | 14.83248 | -21.65185 | 18933 ft | 243 kts | 91° |
| 2026-04-25 18:42 | 14.83077 | -21.63430 | 18933 ft | 243 kts | 91° |
| 2026-04-25 18:42 | 14.82962 | -21.62252 | 18932 ft | 243 kts | 91° |
| 2026-04-25 18:42 | 14.82736 | -21.59928 | 18932 ft | 243 kts | 91° |
| 2026-04-25 18:42 | 14.82568 | -21.58193 | 18932 ft | 243 kts | 91° |
| 2026-04-25 18:43 | 14.82397 | -21.56443 | 18932 ft | 243 kts | 91° |
| 2026-04-25 18:43 | 14.82226 | -21.54690 | 18932 ft | 243 kts | 91° |
| 2026-04-25 18:43 | 14.82055 | -21.52940 | 18932 ft | 243 kts | 91° |
| 2026-04-25 18:43 | 14.81885 | -21.51197 | 18932 ft | 243 kts | 91° |
| 2026-04-25 18:44 | 14.81715 | -21.49456 | 18932 ft | 243 kts | 91° |
| 2026-04-25 18:44 | 14.81545 | -21.47717 | 18932 ft | 243 kts | 91° |
| 2026-04-25 18:44 | 14.81374 | -21.45964 | 18933 ft | 243 kts | 91° |
| 2026-04-25 18:44 | 14.81203 | -21.44223 | 18933 ft | 243 kts | 91° |
| 2026-04-25 18:45 | 14.81030 | -21.42458 | 18934 ft | 243 kts | 91° |
| 2026-04-25 18:45 | 14.80858 | -21.40701 | 18935 ft | 243 kts | 91° |
| 2026-04-25 18:45 | 14.80687 | -21.38952 | 18935 ft | 243 kts | 91° |
| 2026-04-25 18:45 | 14.80516 | -21.37216 | 18936 ft | 243 kts | 91° |
| 2026-04-25 18:46 | 14.80341 | -21.35442 | 18937 ft | 243 kts | 91° |
| 2026-04-25 18:46 | 14.80168 | -21.33680 | 18939 ft | 243 kts | 91° |
| 2026-04-25 18:46 | 14.79997 | -21.31938 | 18939 ft | 243 kts | 91° |
| 2026-04-25 18:46 | 14.79825 | -21.30187 | 18939 ft | 244 kts | 91° |
| 2026-04-25 18:47 | 14.79647 | -21.28348 | 18967 ft | 266 kts | 91° |
| 2026-04-25 18:47 | 14.79457 | -21.26344 | 18966 ft | 292 kts | 92° |
| 2026-04-25 18:47 | 14.79245 | -21.24155 | 18958 ft | 318 kts | 92° |
| 2026-04-25 18:47 | 14.79013 | -21.21786 | 18953 ft | 342 kts | 92° |
| 2026-04-25 18:48 | 14.78765 | -21.19294 | 18944 ft | 352 kts | 92° |
| 2026-04-25 18:48 | 14.78511 | -21.16777 | 18941 ft | 353 kts | 92° |
| 2026-04-25 18:48 | 14.78255 | -21.14242 | 18940 ft | 354 kts | 92° |
| 2026-04-25 18:48 | 14.78000 | -21.11707 | 18939 ft | 354 kts | 92° |
| 2026-04-25 18:49 | 14.77745 | -21.09158 | 18939 ft | 353 kts | 93° |
| 2026-04-25 18:49 | 14.76811 | -20.99014 | 18990 ft | 353 kts | 99° |
| 2026-04-25 18:49 | 14.76548 | -20.96498 | 18961 ft | 352 kts | 99° |
| 2026-04-25 18:49 | 14.76270 | -20.93982 | 18948 ft | 352 kts | 99° |
| 2026-04-25 18:50 | 14.75995 | -20.91442 | 18943 ft | 353 kts | 99° |
| 2026-04-25 18:50 | 14.75727 | -20.88901 | 18940 ft | 352 kts | 99° |
| 2026-04-25 18:50 | 14.75062 | -20.82476 | 18944 ft | 353 kts | 99° |
| 2026-04-25 18:50 | 14.73956 | -20.71685 | 18951 ft | 353 kts | 99° |
| 2026-04-25 18:51 | 14.73706 | -20.69165 | 18944 ft | 353 kts | 99° |
| 2026-04-25 18:51 | 14.73537 | -20.67472 | 18942 ft | 353 kts | 99° |
| 2026-04-25 18:51 | 14.73199 | -20.64100 | 18940 ft | 353 kts | 99° |
| 2026-04-25 18:51 | 14.72943 | -20.61562 | 18939 ft | 353 kts | 99° |
| 2026-04-25 18:52 | 14.72444 | -20.56644 | 18940 ft | 353 kts | 99° |
| 2026-04-25 18:52 | 14.72189 | -20.54143 | 18939 ft | 353 kts | 99° |
| 2026-04-25 18:52 | 14.71096 | -20.43431 | 18956 ft | 353 kts | 99° |
| 2026-04-25 18:52 | 14.70525 | -20.37855 | 18949 ft | 353 kts | 99° |
| 2026-04-25 18:53 | 14.70264 | -20.35311 | 18939 ft | 353 kts | 99° |
| 2026-04-25 18:53 | 14.70009 | -20.32811 | 18929 ft | 353 kts | 99° |
| 2026-04-25 18:53 | 14.69749 | -20.30263 | 18919 ft | 353 kts | 99° |
| 2026-04-25 18:53 | 14.69490 | -20.27729 | 18909 ft | 353 kts | 99° |
| 2026-04-25 18:54 | 14.68929 | -20.22708 | 18888 ft | 352 kts | 102° |
| 2026-04-25 18:54 | 14.68443 | -20.20231 | 18878 ft | 350 kts | 107° |
| 2026-04-25 18:54 | 14.67768 | -20.17833 | 18869 ft | 349 kts | 111° |
| 2026-04-25 18:55 | 14.67009 | -20.15443 | 18860 ft | 349 kts | 111° |
| 2026-04-25 18:55 | 14.66244 | -20.13067 | 18851 ft | 349 kts | 111° |
| 2026-04-25 18:55 | 14.63306 | -20.03943 | 18841 ft | 349 kts | 111° |
| 2026-04-25 18:55 | 14.62545 | -20.01570 | 18838 ft | 349 kts | 111° |
| 2026-04-25 18:56 | 14.61773 | -19.99161 | 18835 ft | 349 kts | 111° |
| 2026-04-25 18:56 | 14.61016 | -19.96798 | 18833 ft | 349 kts | 111° |
| 2026-04-25 18:56 | 14.60249 | -19.94407 | 18832 ft | 349 kts | 111° |
| 2026-04-25 18:56 | 14.59482 | -19.92018 | 18831 ft | 349 kts | 111° |
| 2026-04-25 18:57 | 14.58712 | -19.89622 | 18832 ft | 349 kts | 111° |
| 2026-04-25 18:57 | 14.57957 | -19.87272 | 18831 ft | 348 kts | 111° |
| 2026-04-25 18:57 | 14.57190 | -19.84886 | 18831 ft | 348 kts | 111° |
| 2026-04-25 18:57 | 14.56679 | -19.83297 | 18831 ft | 348 kts | 111° |
| 2026-04-25 18:58 | 14.55653 | -19.80108 | 18831 ft | 348 kts | 111° |
| 2026-04-25 18:58 | 14.50509 | -19.64142 | 18837 ft | 348 kts | 111° |
| 2026-04-25 18:58 | 14.49736 | -19.61745 | 18834 ft | 348 kts | 111° |
| 2026-04-25 18:59 | 14.48115 | -19.56749 | 18838 ft | 389 kts | 111° |
| 2026-04-25 18:59 | 14.46322 | -19.51213 | 18836 ft | 425 kts | 110° |
| 2026-04-25 19:00 | 14.44398 | -19.45259 | 18831 ft | 436 kts | 110° |
| 2026-04-25 19:00 | 14.43442 | -19.42300 | 18831 ft | 436 kts | 110° |
| 2026-04-25 19:01 | 14.41522 | -19.36364 | 18831 ft | 436 kts | 110° |
| 2026-04-25 19:01 | 14.40558 | -19.33383 | 18831 ft | 436 kts | 111° |
| 2026-04-25 19:01 | 14.39586 | -19.30368 | 18831 ft | 436 kts | 110° |
| 2026-04-25 19:01 | 14.38622 | -19.27378 | 18831 ft | 436 kts | 111° |
| 2026-04-25 19:02 | 14.36688 | -19.21403 | 18831 ft | 436 kts | 111° |
| 2026-04-25 19:02 | 14.35726 | -19.18439 | 18831 ft | 436 kts | 111° |
| 2026-04-25 19:02 | 14.34757 | -19.15455 | 18831 ft | 436 kts | 111° |
| 2026-04-25 19:03 | 14.33458 | -19.11457 | 18831 ft | 436 kts | 111° |
| 2026-04-25 19:03 | 14.31855 | -19.06532 | 18831 ft | 435 kts | 111° |
| 2026-04-25 19:03 | 14.30914 | -19.03641 | 18831 ft | 435 kts | 111° |
| 2026-04-25 19:04 | 14.25153 | -18.85975 | 18843 ft | 433 kts | 111° |
| 2026-04-25 19:04 | 14.24188 | -18.83024 | 18836 ft | 433 kts | 111° |
| 2026-04-25 19:05 | 14.22249 | -18.77097 | 18832 ft | 433 kts | 111° |
| 2026-04-25 19:05 | 14.20324 | -18.71214 | 18831 ft | 433 kts | 111° |
| 2026-04-25 19:05 | 14.19349 | -18.68237 | 18831 ft | 433 kts | 111° |
| 2026-04-25 19:06 | 14.18379 | -18.65278 | 18831 ft | 433 kts | 111° |
| 2026-04-25 19:06 | 14.16456 | -18.59412 | 18831 ft | 433 kts | 111° |
| 2026-04-25 19:06 | 14.15489 | -18.56463 | 18831 ft | 433 kts | 111° |
| 2026-04-25 19:07 | 14.13557 | -18.50549 | 18834 ft | 433 kts | 111° |
| 2026-04-25 19:07 | 14.12590 | -18.47605 | 18832 ft | 433 kts | 111° |
| 2026-04-25 19:08 | 14.10643 | -18.41687 | 18831 ft | 433 kts | 111° |
| 2026-04-25 19:08 | 14.09670 | -18.38730 | 18831 ft | 433 kts | 111° |
| 2026-04-25 19:09 | 14.06767 | -18.29894 | 18831 ft | 433 kts | 111° |
| 2026-04-25 19:09 | 14.06113 | -18.27902 | 18831 ft | 433 kts | 111° |
| 2026-04-25 19:09 | 14.03857 | -18.21050 | 18831 ft | 433 kts | 111° |
| 2026-04-25 19:10 | 14.02877 | -18.18081 | 18831 ft | 433 kts | 111° |
| 2026-04-25 19:10 | 14.01906 | -18.15142 | 18831 ft | 433 kts | 111° |
| 2026-04-25 19:10 | 14.00929 | -18.12189 | 18831 ft | 433 kts | 111° |
| 2026-04-25 19:10 | 13.99940 | -18.09201 | 18831 ft | 433 kts | 111° |
| 2026-04-25 19:11 | 13.98964 | -18.06250 | 18831 ft | 433 kts | 111° |
| 2026-04-25 19:11 | 13.98164 | -18.03239 | 18784 ft | 435 kts | 101° |
| 2026-04-25 19:11 | 13.98176 | -18.00179 | 18587 ft | 429 kts | 83° |
| 2026-04-25 19:11 | 13.99066 | -17.97243 | 18316 ft | 421 kts | 66° |
| 2026-04-25 19:12 | 14.00644 | -17.94709 | 18083 ft | 410 kts | 56° |
| 2026-04-25 19:12 | 14.02343 | -17.92405 | 17853 ft | 397 kts | 55° |
| 2026-04-25 19:12 | 14.04012 | -17.90182 | 17578 ft | 387 kts | 55° |
| 2026-04-25 19:12 | 14.05619 | -17.88032 | 17368 ft | 375 kts | 55° |
| 2026-04-25 19:13 | 14.07199 | -17.85900 | 17110 ft | 365 kts | 56° |
| 2026-04-25 19:13 | 14.08721 | -17.83834 | 16680 ft | 361 kts | 56° |
| 2026-04-25 19:13 | 14.10233 | -17.81772 | 16206 ft | 358 kts | 56° |
| 2026-04-25 19:13 | 14.11722 | -17.79736 | 15750 ft | 354 kts | 56° |
| 2026-04-25 19:14 | 14.13206 | -17.77706 | 15291 ft | 351 kts | 55° |
| 2026-04-25 19:14 | 14.13699 | -17.77032 | 15138 ft | 350 kts | 55° |
| 2026-04-25 19:14 | 14.16130 | -17.73703 | 14371 ft | 345 kts | 55° |
| 2026-04-25 19:14 | 14.17589 | -17.71704 | 13906 ft | 342 kts | 55° |
| 2026-04-25 19:15 | 14.19021 | -17.69741 | 13445 ft | 339 kts | 55° |
| 2026-04-25 19:15 | 14.20434 | -17.67804 | 12987 ft | 337 kts | 54° |
| 2026-04-25 19:15 | 14.21839 | -17.65878 | 12528 ft | 334 kts | 54° |
| 2026-04-25 19:15 | 14.23230 | -17.63970 | 12068 ft | 332 kts | 54° |
| 2026-04-25 19:16 | 14.24620 | -17.62063 | 11609 ft | 329 kts | 54° |
| 2026-04-25 19:16 | 14.26006 | -17.60163 | 11162 ft | 326 kts | 54° |
| 2026-04-25 19:16 | 14.27370 | -17.58291 | 10720 ft | 323 kts | 54° |
| 2026-04-25 19:16 | 14.28706 | -17.56456 | 10288 ft | 320 kts | 54° |
| 2026-04-25 19:17 | 14.30047 | -17.54615 | 9934 ft | 314 kts | 54° |
| 2026-04-25 19:17 | 14.30934 | -17.53398 | 9810 ft | 306 kts | 54° |
| 2026-04-25 19:17 | 14.32192 | -17.51669 | 9622 ft | 296 kts | 54° |
| 2026-04-25 19:17 | 14.33434 | -17.49965 | 9433 ft | 286 kts | 54° |
| 2026-04-25 19:18 | 14.34618 | -17.48340 | 9183 ft | 279 kts | 54° |
| 2026-04-25 19:18 | 14.35780 | -17.46742 | 8806 ft | 278 kts | 54° |
| 2026-04-25 19:18 | 14.36930 | -17.45156 | 8434 ft | 276 kts | 53° |
| 2026-04-25 19:18 | 14.38079 | -17.43576 | 8179 ft | 269 kts | 53° |
| 2026-04-25 19:19 | 14.39192 | -17.42044 | 8005 ft | 260 kts | 53° |
| 2026-04-25 19:19 | 14.40261 | -17.40576 | 7819 ft | 252 kts | 53° |
| 2026-04-25 19:19 | 14.41302 | -17.39141 | 7527 ft | 248 kts | 53° |
| 2026-04-25 19:19 | 14.41991 | -17.38191 | 7302 ft | 248 kts | 53° |
| 2026-04-25 19:20 | 14.43366 | -17.36298 | 6856 ft | 246 kts | 53° |
| 2026-04-25 19:20 | 14.44397 | -17.34879 | 6522 ft | 244 kts | 53° |
| 2026-04-25 19:20 | 14.45406 | -17.33481 | 6197 ft | 243 kts | 53° |
| 2026-04-25 19:20 | 14.46409 | -17.32088 | 5871 ft | 241 kts | 53° |
| 2026-04-25 19:21 | 14.47172 | -17.30551 | 5504 ft | 242 kts | 77° |
| 2026-04-25 19:21 | 14.46285 | -17.27281 | 4832 ft | 248 kts | 127° |
| 2026-04-25 19:21 | 14.45124 | -17.25984 | 4508 ft | 249 kts | 130° |
| 2026-04-25 19:22 | 14.43946 | -17.24675 | 4157 ft | 248 kts | 128° |
| 2026-04-25 19:22 | 14.42862 | -17.23308 | 3943 ft | 241 kts | 124° |
| 2026-04-25 19:22 | 14.41044 | -17.20449 | 3408 ft | 234 kts | 115° |
| 2026-04-25 19:23 | 14.40290 | -17.18943 | 3099 ft | 232 kts | 111° |
| 2026-04-25 19:23 | 14.39086 | -17.15840 | 3009 ft | 232 kts | 104° |
| 2026-04-25 19:23 | 14.38632 | -17.14265 | 3005 ft | 231 kts | 101° |
| 2026-04-25 19:24 | 14.38265 | -17.12632 | 3004 ft | 230 kts | 97° |
| 2026-04-25 19:24 | 14.37997 | -17.10984 | 3003 ft | 229 kts | 93° |
| 2026-04-25 19:24 | 14.38838 | -17.08013 | 2998 ft | 220 kts | 43° |
| 2026-04-25 19:25 | 14.41642 | -17.06971 | 3007 ft | 219 kts | 2° |
| 2026-04-25 19:25 | 14.43177 | -17.06994 | 3005 ft | 219 kts | 359° |
| 2026-04-25 19:25 | 14.44689 | -17.07045 | 3004 ft | 219 kts | 359° |
| 2026-04-25 19:26 | 14.46224 | -17.07082 | 2998 ft | 214 kts | 0° |
| 2026-04-25 19:26 | 14.47653 | -17.07104 | 2986 ft | 199 kts | 0° |
| 2026-04-25 19:26 | 14.48994 | -17.07119 | 2978 ft | 183 kts | 1° |
| 2026-04-25 19:26 | 14.50257 | -17.07130 | 2986 ft | 177 kts | 1° |
| 2026-04-25 19:27 | 14.51496 | -17.07140 | 2961 ft | 178 kts | 1° |
| 2026-04-25 19:27 | 14.52312 | -17.07147 | 2837 ft | 176 kts | 1° |
| 2026-04-25 19:27 | 14.53942 | -17.07162 | 2530 ft | 175 kts | 0° |
| 2026-04-25 19:27 | 14.55143 | -17.07173 | 2299 ft | 173 kts | 0° |
| 2026-04-25 19:28 | 14.56361 | -17.07184 | 2064 ft | 173 kts | 0° |
| 2026-04-25 19:28 | 14.57557 | -17.07195 | 1904 ft | 168 kts | 0° |
| 2026-04-25 19:28 | 14.58682 | -17.07205 | 1695 ft | 156 kts | 0° |
| 2026-04-25 19:28 | 14.59743 | -17.07214 | 1457 ft | 142 kts | 360° |
| 2026-04-25 19:29 | 14.60690 | -17.07223 | 1226 ft | 128 kts | 359° |
| 2026-04-25 19:29 | 14.61582 | -17.07225 | 952 ft | 124 kts | 359° |
| 2026-04-25 19:29 | 14.62452 | -17.07237 | 896 ft | 125 kts | 358° |
| 2026-04-25 19:29 | 14.63336 | -17.07245 | 749 ft | 125 kts | 359° |
| 2026-04-25 19:30 | 14.64201 | -17.07254 | 591 ft | 125 kts | 358° |
| 2026-04-25 19:30 | 14.65069 | -17.07265 | 419 ft | 124 kts | 359° |
| 2026-04-25 19:30 | 14.65906 | -17.07273 | 299 ft | 114 kts | 358° |
| 2026-04-25 19:30 | 14.66552 | -17.07278 | 299 ft | 67 kts | 359° |
| 2026-04-25 19:31 | 14.66890 | -17.07281 | 299 ft | 40 kts | 358° |
| 2026-04-25 19:31 | 14.67060 | -17.07261 | 299 ft | 15 kts | 40° |
| 2026-04-25 19:31 | 14.67079 | -17.07174 | 299 ft | 10 kts | 90° |
| 2026-04-25 19:31 | 14.67063 | -17.07099 | 299 ft | 10 kts | 135° |
| 2026-04-25 19:32 | 14.66988 | -17.07084 | 299 ft | 11 kts | 181° |
| 2026-04-25 19:32 | 14.66905 | -17.07092 | 299 ft | 12 kts | 184° |
| 2026-04-25 19:32 | 14.66819 | -17.07090 | 299 ft | 12 kts | 178° |
| 2026-04-25 19:32 | 14.66759 | -17.07088 | 299 ft | 13 kts | 178° |
| 2026-04-25 19:33 | 14.66663 | -17.07055 | 299 ft | 9 kts | 96° |
| 2026-04-25 19:33 | 14.66674 | -17.06987 | 299 ft | 9 kts | 44° |
| 2026-04-25 19:33 | 14.66741 | -17.06976 | 299 ft | 10 kts | 357° |
| 2026-04-25 19:33 | 14.66813 | -17.06980 | 299 ft | 10 kts | 359° |
| 2026-04-25 19:34 | 14.66868 | -17.06955 | 299 ft | 9 kts | 85° |
| 2026-04-25 19:34 | 14.66869 | -17.06889 | 299 ft | 8 kts | 89° |